createdAt,value
2022-08-02T00:01:22.540Z,6.50
2022-08-02T00:03:50.927Z,6.10
2022-08-02T00:06:19.390Z,6.40
2022-08-02T00:08:47.834Z,6.10
2022-08-02T00:11:16.065Z,5.90
2022-08-02T00:13:44.911Z,6.30
2022-08-02T00:16:16.905Z,6.50
2022-08-02T00:18:46.053Z,6.30
2022-08-02T00:21:14.537Z,6.40
2022-08-02T00:24:27.463Z,6.10
2022-08-02T00:26:31.873Z,6.40
2022-08-02T00:29:00.524Z,6.10
2022-08-02T00:31:28.991Z,6.60
2022-08-02T00:34:26.938Z,6.30
2022-08-02T00:36:45.964Z,6.30
2022-08-02T00:39:34.153Z,5.70
2022-08-02T00:42:03.503Z,6.10
2022-08-02T00:44:32.336Z,5.80
2022-08-02T00:47:01.188Z,5.60
2022-08-02T00:49:29.499Z,6.30
2022-08-02T00:51:58.130Z,6.30
2022-08-02T00:54:26.416Z,6.20
2022-08-02T00:56:54.806Z,5.90
2022-08-02T00:59:23.403Z,5.80
2022-08-02T01:01:55.984Z,6.10
2022-08-02T01:04:31.207Z,5.80
2022-08-02T01:09:28.909Z,6.20
2022-08-02T01:11:57.401Z,7.00
2022-08-02T01:14:32.369Z,6.20
2022-08-02T01:17:06.673Z,6.30
2022-08-02T01:19:40.757Z,6.60
2022-08-02T01:22:34.554Z,6.60
2022-08-02T01:25:20.239Z,5.80
2022-08-02T01:28:02.331Z,6.00
2022-08-02T01:30:33.668Z,6.40
2022-08-02T01:33:03.870Z,6.10
2022-08-02T01:35:47.165Z,5.80
2022-08-02T01:38:23.818Z,6.30
2022-08-02T01:40:54.473Z,6.40
2022-08-02T01:43:24.151Z,6.00
2022-08-02T01:45:53.747Z,6.40
2022-08-02T01:48:22.504Z,6.50
2022-08-02T01:50:51.829Z,5.80
2022-08-02T01:53:21.159Z,6.20
2022-08-02T01:55:57.409Z,6.40
2022-08-02T01:58:29.796Z,5.80
2022-08-02T02:00:59.087Z,6.00
2022-08-02T02:03:29.453Z,7.30
2022-08-02T02:06:01.928Z,7.40
2022-08-02T02:08:32.583Z,7.00
2022-08-02T02:12:06.354Z,6.80
2022-08-02T02:13:51.093Z,7.60
2022-08-02T02:16:20.388Z,6.40
2022-08-02T02:18:49.636Z,6.70
2022-08-02T02:21:18.020Z,7.40
2022-08-02T02:23:46.365Z,7.30
2022-08-02T02:26:29.360Z,6.70
2022-08-02T02:29:02.430Z,6.50
2022-08-02T02:31:34.745Z,7.10
2022-08-02T02:34:05.552Z,6.90
2022-08-02T02:36:34.426Z,7.10
2022-08-02T02:39:10.184Z,7.80
2022-08-02T02:41:43.411Z,7.50
2022-08-02T02:44:15.552Z,7.50
2022-08-02T02:46:45.186Z,9.50
2022-08-02T02:49:14.154Z,8.10
2022-08-02T02:51:42.860Z,8.50
2022-08-02T02:54:30.733Z,8.60
2022-08-02T02:57:01.816Z,8.40
2022-08-02T02:59:31.432Z,8.40
2022-08-02T03:02:00.275Z,9.00
2022-08-02T03:04:55.894Z,9.30
2022-08-02T03:07:18.333Z,9.40
2022-08-02T03:09:47.404Z,8.70
2022-08-02T03:12:30.215Z,9.70
2022-08-02T03:15:00.618Z,9.60
2022-08-02T03:17:39.420Z,9.30
2022-08-02T03:20:12.653Z,9.40
2022-08-02T03:22:41.739Z,9.50
2022-08-02T03:25:11.447Z,9.00
2022-08-02T03:27:40.092Z,10.30
2022-08-02T03:30:11.577Z,9.70
2022-08-02T03:32:43.364Z,9.20
2022-08-02T03:35:14.072Z,9.40
2022-08-02T03:37:45.312Z,9.40
2022-08-02T03:40:14.035Z,9.50
2022-08-02T03:42:42.983Z,9.40
2022-08-02T03:45:13.261Z,9.00
2022-08-02T03:47:43.240Z,9.30
2022-08-02T03:50:12.981Z,8.80
2022-08-02T03:52:42.643Z,9.40
2022-08-02T03:55:12.545Z,9.60
2022-08-02T03:57:42.075Z,9.20
2022-08-02T04:00:17.757Z,8.50
2022-08-02T04:02:46.286Z,8.20
2022-08-02T04:05:15.089Z,8.50
2022-08-02T04:08:34.266Z,8.00
2022-08-02T04:10:52.519Z,8.10
2022-08-02T04:13:27.465Z,8.70
2022-08-02T04:16:04.017Z,8.50
2022-08-02T04:18:36.725Z,8.60
2022-08-02T04:21:06.771Z,8.00
2022-08-02T04:23:35.610Z,7.70
2022-08-02T04:26:04.558Z,7.60
2022-08-02T04:28:37.595Z,7.90
2022-08-02T04:31:06.665Z,8.20
2022-08-02T04:33:35.493Z,8.30
2022-08-02T04:36:05.978Z,8.20
2022-08-02T04:38:35.714Z,7.90
2022-08-02T04:41:04.107Z,8.40
2022-08-02T04:43:33.944Z,7.70
2022-08-02T04:46:02.430Z,8.30
2022-08-02T04:48:32.218Z,8.10
2022-08-02T04:51:01.096Z,8.40
2022-08-02T04:53:29.457Z,8.40
2022-08-02T04:55:58.877Z,7.70
2022-08-02T04:58:42.774Z,8.50
2022-08-02T05:01:11.296Z,8.40
2022-08-02T05:03:39.853Z,8.10
2022-08-02T05:06:19.119Z,8.40
2022-08-02T05:08:52.438Z,8.30
2022-08-02T05:11:21.941Z,7.10
2022-08-02T05:13:58.846Z,7.10
2022-08-02T05:16:30.698Z,7.60
2022-08-02T05:19:02.083Z,7.50
2022-08-02T05:21:31.294Z,7.20
2022-08-02T05:23:59.709Z,7.00
2022-08-02T05:26:28.255Z,6.80
2022-08-02T05:28:56.454Z,6.50
2022-08-02T05:31:24.844Z,6.40
2022-08-02T05:33:53.513Z,6.00
2022-08-02T05:36:21.850Z,6.50
2022-08-02T05:38:50.773Z,5.10
2022-08-02T05:41:19.630Z,5.30
2022-08-02T05:43:48.417Z,4.80
2022-08-02T05:46:16.737Z,5.20
2022-08-02T05:48:45.535Z,5.20
2022-08-02T05:51:20.577Z,5.20
2022-08-02T05:53:52.232Z,5.50
2022-08-02T05:56:25.279Z,4.60
2022-08-02T05:58:59.449Z,6.90
2022-08-02T06:01:32.282Z,5.70
2022-08-02T06:04:01.485Z,5.10
2022-08-02T06:06:30.520Z,4.70
2022-08-02T06:09:02.996Z,4.40
2022-08-02T06:11:35.561Z,4.50
2022-08-02T06:14:05.854Z,4.30
2022-08-02T06:16:40.395Z,4.00
2022-08-02T06:19:12.553Z,3.60
2022-08-02T06:22:31.754Z,3.60
2022-08-02T06:24:31.602Z,3.60
2022-08-02T06:27:01.258Z,3.70
2022-08-02T06:29:37.029Z,3.50
2022-08-02T06:32:09.240Z,3.10
2022-08-02T06:34:38.347Z,3.20
2022-08-02T06:37:14.965Z,3.00
2022-08-02T06:39:47.374Z,3.00
2022-08-02T06:42:26.965Z,2.50
2022-08-02T06:44:57.951Z,2.10
2022-08-02T06:47:27.076Z,2.40
2022-08-02T06:49:57.849Z,2.60
2022-08-02T06:52:30.066Z,2.20
2022-08-02T06:55:00.678Z,2.50
2022-08-02T06:57:30.061Z,2.60
2022-08-02T07:00:01.078Z,2.10
2022-08-02T07:02:30.286Z,2.80
2022-08-02T07:04:58.765Z,2.80
2022-08-02T07:07:27.571Z,1.90
2022-08-02T07:10:01.415Z,2.40
2022-08-02T07:12:31.537Z,3.20
2022-08-02T07:15:02.157Z,1.90
2022-08-02T07:17:30.937Z,7.20
2022-08-02T07:20:00.259Z,2.10
2022-08-02T07:22:29.412Z,1.50
2022-08-02T07:24:59.951Z,2.00
2022-08-02T07:27:29.652Z,3.20
2022-08-02T07:29:58.716Z,2.90
2022-08-02T07:32:29.567Z,1.60
2022-08-02T07:35:07.063Z,1.80
2022-08-02T07:37:55.321Z,3.00
2022-08-02T07:40:28.313Z,3.10
2022-08-02T07:43:04.462Z,1.50
2022-08-02T07:45:45.629Z,2.00
2022-08-02T07:48:25.137Z,1.60
2022-08-02T07:50:53.840Z,1.40
2022-08-02T07:53:50.217Z,1.20
2022-08-02T07:56:13.340Z,1.60
2022-08-02T07:58:45.939Z,1.60
2022-08-02T08:01:15.191Z,1.30
2022-08-02T08:03:46.022Z,1.90
2022-08-02T08:06:14.894Z,1.30
2022-08-02T08:08:45.067Z,1.10
2022-08-02T08:11:16.203Z,1.80
2022-08-02T08:13:44.763Z,1.50
2022-08-02T08:16:13.592Z,1.60
2022-08-02T08:18:41.998Z,1.30
2022-08-02T08:21:11.096Z,2.10
2022-08-02T08:23:42.158Z,1.50
2022-08-02T08:26:15.314Z,1.50
2022-08-02T08:28:45.762Z,2.10
2022-08-02T08:31:14.209Z,2.90
2022-08-02T08:33:42.905Z,1.20
2022-08-02T08:36:11.578Z,1.60
2022-08-02T08:38:42.363Z,1.30
2022-08-02T08:41:14.494Z,1.80
2022-08-02T08:43:43.844Z,1.50
2022-08-02T08:46:17.871Z,1.20
2022-08-02T08:48:49.934Z,3.00
2022-08-02T08:51:22.291Z,2.60
2022-08-02T08:53:54.329Z,2.00
2022-08-02T08:56:23.217Z,2.10
2022-08-02T08:58:53.069Z,2.80
2022-08-02T09:01:21.460Z,2.20
2022-08-02T09:03:49.809Z,21.20
2022-08-02T09:06:25.761Z,2.90
2022-08-02T09:08:55.587Z,2.00
2022-08-02T09:11:25.473Z,1.60
2022-08-02T09:13:55.423Z,1.80
2022-08-02T09:16:37.846Z,13.50
2022-08-02T09:19:19.935Z,5.10
2022-08-02T09:21:50.218Z,2.70
2022-08-02T09:24:25.979Z,2.00
2022-08-02T09:27:12.529Z,1.70
2022-08-02T09:30:06.100Z,1.60
2022-08-02T09:32:34.012Z,2.10
2022-08-02T09:35:03.001Z,1.70
2022-08-02T09:37:32.151Z,1.80
2022-08-02T09:40:04.789Z,1.80
2022-08-02T09:42:34.962Z,1.90
2022-08-02T09:45:05.438Z,1.90
2022-08-02T09:47:37.646Z,2.00
2022-08-02T09:50:12.179Z,2.20
2022-08-02T09:52:44.396Z,2.50
2022-08-02T09:55:14.052Z,2.10
2022-08-02T09:57:51.333Z,1.90
2022-08-02T10:00:31.603Z,2.40
2022-08-02T10:03:13.652Z,1.70
2022-08-02T10:05:56.299Z,1.50
2022-08-02T10:08:33.152Z,1.70
2022-08-02T10:11:02.797Z,2.00
2022-08-02T10:13:34.094Z,1.90
2022-08-02T10:16:04.231Z,2.30
2022-08-02T10:18:41.322Z,5.10
2022-08-02T10:21:14.180Z,5.10
2022-08-02T10:23:44.892Z,2.20
2022-08-02T10:26:18.281Z,1.70
2022-08-02T10:31:19.993Z,1.60
2022-08-02T10:36:19.866Z,4.70
2022-08-02T10:38:48.653Z,2.90
2022-08-02T10:41:40.389Z,2.20
2022-08-02T10:44:24.183Z,2.40
2022-08-02T10:46:54.202Z,2.70
2022-08-02T10:49:39.070Z,2.00
2022-08-02T10:52:10.121Z,2.70
2022-08-02T10:54:40.899Z,2.40
2022-08-02T10:57:20.845Z,2.20
2022-08-02T10:59:51.450Z,1.90
2022-08-02T11:02:46.630Z,2.30
2022-08-02T11:05:27.876Z,1.90
2022-08-02T11:08:24.638Z,2.20
2022-08-02T11:11:00.169Z,2.10
2022-08-02T11:13:29.817Z,2.10
2022-08-02T11:16:01.474Z,2.00
2022-08-02T11:19:06.677Z,2.00
2022-08-02T11:21:37.152Z,1.90
2022-08-02T11:24:35.982Z,2.00
2022-08-02T11:27:06.237Z,2.60
2022-08-02T11:29:38.771Z,2.10
2022-08-02T11:32:08.615Z,2.00
2022-08-02T11:34:38.443Z,2.10
2022-08-02T11:37:08.809Z,2.00
2022-08-02T11:39:37.447Z,1.90
2022-08-02T11:42:06.225Z,2.40
2022-08-02T11:44:42.344Z,2.00
2022-08-02T11:47:12.363Z,2.60
2022-08-02T11:49:40.919Z,2.20
2022-08-02T11:52:10.798Z,2.60
2022-08-02T11:54:42.087Z,2.20
2022-08-02T11:57:19.760Z,1.90
2022-08-02T11:59:50.154Z,2.60
2022-08-02T12:02:19.267Z,2.60
2022-08-02T12:04:58.126Z,2.00
2022-08-02T12:07:34.707Z,1.90
2022-08-02T12:10:08.527Z,2.60
2022-08-02T12:15:30.071Z,2.30
2022-08-02T12:18:17.316Z,2.20
2022-08-02T12:20:45.960Z,1.70
2022-08-02T12:23:14.876Z,3.60
2022-08-02T12:25:43.528Z,1.90
2022-08-02T12:28:18.055Z,2.20
2022-08-02T12:30:55.416Z,2.40
2022-08-02T12:33:25.555Z,2.50
2022-08-02T12:35:54.046Z,2.40
2022-08-02T12:38:23.182Z,2.50
2022-08-02T12:40:51.671Z,3.00
2022-08-02T12:43:24.021Z,2.30
2022-08-02T12:45:54.346Z,2.80
2022-08-02T12:48:37.544Z,2.80
2022-08-02T12:51:55.645Z,2.20
2022-08-02T12:54:20.505Z,2.40
2022-08-02T12:56:58.005Z,1.70
2022-08-02T12:59:38.868Z,2.00
2022-08-02T13:02:12.790Z,1.70
2022-08-02T13:04:49.632Z,2.70
2022-08-02T13:07:20.343Z,2.20
2022-08-02T13:10:03.291Z,2.40
2022-08-02T13:12:33.985Z,2.10
2022-08-02T13:15:03.637Z,1.90
2022-08-02T13:17:41.520Z,1.60
2022-08-02T13:20:11.308Z,2.10
2022-08-02T13:22:52.838Z,2.50
2022-08-02T13:25:23.135Z,1.90
2022-08-02T13:27:52.087Z,1.70
2022-08-02T13:30:20.352Z,1.70
2022-08-02T13:32:49.083Z,1.90
2022-08-02T13:35:19.828Z,1.40
2022-08-02T13:37:51.359Z,1.90
2022-08-02T13:40:23.656Z,1.90
2022-08-02T13:42:52.431Z,1.80
2022-08-02T13:45:20.977Z,2.30
2022-08-02T13:47:57.552Z,2.10
2022-08-02T13:50:35.053Z,2.30
2022-08-02T13:53:03.289Z,2.30
2022-08-02T13:55:31.764Z,2.60
2022-08-02T13:58:00.411Z,1.90
2022-08-02T14:00:35.445Z,1.90
2022-08-02T14:03:06.494Z,1.90
2022-08-02T14:05:46.928Z,1.90
2022-08-02T14:08:17.793Z,2.00
2022-08-02T14:10:50.625Z,2.00
2022-08-02T14:13:20.816Z,2.30
2022-08-02T14:15:49.552Z,2.20
2022-08-02T14:18:18.028Z,1.80
2022-08-02T14:20:47.532Z,2.10
2022-08-02T14:23:16.145Z,2.10
2022-08-02T14:25:44.450Z,2.50
2022-08-02T14:28:13.383Z,2.00
2022-08-02T14:30:42.050Z,2.80
2022-08-02T14:33:11.385Z,2.30
2022-08-02T14:35:42.395Z,2.20
2022-08-02T14:38:11.378Z,2.40
2022-08-02T14:40:39.789Z,1.80
2022-08-02T14:43:08.613Z,1.80
2022-08-02T14:45:40.961Z,2.10
2022-08-02T14:48:11.885Z,2.10
2022-08-02T14:50:42.361Z,2.20
2022-08-02T14:53:12.571Z,2.40
2022-08-02T14:55:42.575Z,2.70
2022-08-02T14:58:11.450Z,2.30
2022-08-02T15:00:41.311Z,2.10
2022-08-02T15:03:10.977Z,2.40
2022-08-02T15:05:39.514Z,2.20
2022-08-02T15:08:08.570Z,1.70
2022-08-02T15:10:37.094Z,2.10
2022-08-02T15:13:05.669Z,2.20
2022-08-02T15:15:40.468Z,2.00
2022-08-02T15:18:13.454Z,2.10
2022-08-02T15:20:43.353Z,2.10
2022-08-02T15:23:22.067Z,2.10
2022-08-02T15:25:51.390Z,2.10
2022-08-02T15:28:20.362Z,1.80
2022-08-02T15:30:49.255Z,2.00
2022-08-02T15:33:17.698Z,2.00
2022-08-02T15:35:46.754Z,1.90
2022-08-02T15:38:16.130Z,2.10
2022-08-02T15:40:44.789Z,1.80
2022-08-02T15:43:13.035Z,2.20
2022-08-02T15:45:41.378Z,2.10
2022-08-02T15:48:09.880Z,1.80
2022-08-02T15:50:38.213Z,2.10
2022-08-02T15:53:06.769Z,2.30
2022-08-02T15:55:39.887Z,2.50
2022-08-02T15:58:22.513Z,2.40
2022-08-02T16:00:51.386Z,2.60
2022-08-02T16:03:19.894Z,2.20
2022-08-02T16:05:48.489Z,2.00
2022-08-02T16:08:19.090Z,2.00
2022-08-02T16:10:47.458Z,1.90
2022-08-02T16:13:37.318Z,2.00
2022-08-02T16:16:14.529Z,2.10
2022-08-02T16:18:43.548Z,2.10
2022-08-02T16:21:11.811Z,2.00
2022-08-02T16:24:01.253Z,2.10
2022-08-02T16:26:29.058Z,2.50
2022-08-02T16:28:58.240Z,2.00
2022-08-02T16:31:26.575Z,2.30
2022-08-02T16:33:56.313Z,2.00
2022-08-02T16:36:26.074Z,1.90
2022-08-02T16:38:55.180Z,2.10
2022-08-02T16:41:23.740Z,2.40
2022-08-02T16:44:13.379Z,2.10
2022-08-02T16:46:42.151Z,2.10
2022-08-02T16:50:07.064Z,2.00
2022-08-02T16:52:02.554Z,2.90
2022-08-02T16:54:31.128Z,3.10
2022-08-02T16:56:59.437Z,3.00
2022-08-02T16:59:34.039Z,2.80
2022-08-02T17:02:18.041Z,2.60
2022-08-02T17:04:47.365Z,2.50
2022-08-02T17:08:08.014Z,2.30
2022-08-02T17:10:06.482Z,2.60
2022-08-02T17:12:38.556Z,2.20
2022-08-02T17:15:52.981Z,2.70
2022-08-02T17:17:59.964Z,3.90
2022-08-02T17:20:28.701Z,2.70
2022-08-02T17:23:00.541Z,2.80
2022-08-02T17:25:32.037Z,2.90
2022-08-02T17:28:01.145Z,2.30
2022-08-02T17:30:30.444Z,2.50
2022-08-02T17:32:59.529Z,2.50
2022-08-02T17:35:43.370Z,2.50
2022-08-02T17:38:26.372Z,2.60
2022-08-02T17:40:55.723Z,2.70
2022-08-02T17:43:25.982Z,2.80
2022-08-02T17:45:59.883Z,3.30
2022-08-02T17:48:54.880Z,2.70
2022-08-02T17:52:15.897Z,3.30
2022-08-02T17:54:13.053Z,3.10
2022-08-02T17:56:42.294Z,4.10
2022-08-02T17:59:20.778Z,3.60
2022-08-02T18:01:52.797Z,3.50
2022-08-02T18:04:27.558Z,3.20
2022-08-02T18:06:57.550Z,3.70
2022-08-02T18:09:26.937Z,3.40
2022-08-02T18:11:55.535Z,2.80
2022-08-02T18:14:24.502Z,3.10
2022-08-02T18:16:54.964Z,3.50
2022-08-02T18:19:23.451Z,3.50
2022-08-02T18:22:02.991Z,3.50
2022-08-02T18:24:31.600Z,3.20
2022-08-02T18:26:59.914Z,3.40
2022-08-02T18:29:30.203Z,3.80
2022-08-02T18:32:11.886Z,3.20
2022-08-02T18:37:08.465Z,3.60
2022-08-02T18:39:38.479Z,3.70
2022-08-02T18:42:07.449Z,4.20
2022-08-02T18:44:35.623Z,4.00
2022-08-02T18:47:04.039Z,3.90
2022-08-02T18:49:46.499Z,4.10
2022-08-02T18:52:27.450Z,4.30
2022-08-02T18:55:00.025Z,4.90
2022-08-02T18:58:18.367Z,8.00
2022-08-02T19:00:20.697Z,9.90
2022-08-02T19:02:54.597Z,11.00
2022-08-02T19:05:53.349Z,11.70
2022-08-02T19:08:12.963Z,11.40
2022-08-02T19:10:49.077Z,12.60
2022-08-02T19:13:18.344Z,13.60
2022-08-02T19:18:37.225Z,9.20
2022-08-02T19:21:05.989Z,9.40
2022-08-02T19:23:36.343Z,8.80
2022-08-02T19:26:23.029Z,8.20
2022-08-02T19:28:54.558Z,7.10
2022-08-02T19:31:22.893Z,7.70
2022-08-02T19:34:04.323Z,8.30
2022-08-02T19:36:35.203Z,7.10
2022-08-02T19:39:04.090Z,8.10
2022-08-02T19:41:43.595Z,6.70
2022-08-02T19:44:23.731Z,7.50
2022-08-02T19:46:57.147Z,7.30
2022-08-02T19:49:39.372Z,6.40
2022-08-02T19:55:01.953Z,8.90
2022-08-02T19:57:46.042Z,7.20
2022-08-02T20:00:21.536Z,7.50
2022-08-02T20:02:50.356Z,6.80
2022-08-02T20:05:26.897Z,7.10
2022-08-02T20:07:56.692Z,7.00
2022-08-02T20:10:26.094Z,6.30
2022-08-02T20:12:54.649Z,6.20
2022-08-02T20:15:23.333Z,6.50
2022-08-02T20:18:12.089Z,6.20
2022-08-02T20:20:43.525Z,6.00
2022-08-02T20:23:32.573Z,6.10
2022-08-02T20:26:02.658Z,6.40
2022-08-02T20:28:32.076Z,7.00
2022-08-02T20:31:07.019Z,6.70
2022-08-02T20:33:55.837Z,7.00
2022-08-02T20:36:25.865Z,7.20
2022-08-02T20:38:55.495Z,6.50
2022-08-02T20:41:36.593Z,6.80
2022-08-02T20:44:15.814Z,6.40
2022-08-02T20:46:59.183Z,7.80
2022-08-02T20:49:41.115Z,6.40
2022-08-02T20:52:23.556Z,6.60
2022-08-02T20:58:00.036Z,8.60
2022-08-02T21:00:29.189Z,7.10
2022-08-02T21:02:57.351Z,7.00
2022-08-02T21:05:43.840Z,7.80
2022-08-02T21:08:14.878Z,7.70
2022-08-02T21:10:51.949Z,8.00
2022-08-02T21:13:23.467Z,6.70
2022-08-02T21:15:53.508Z,6.90
2022-08-02T21:18:30.650Z,7.70
2022-08-02T21:21:09.692Z,7.90
2022-08-02T21:23:38.513Z,6.90
2022-08-02T21:26:19.881Z,7.20
2022-08-02T21:28:57.282Z,7.40
2022-08-02T21:31:29.977Z,7.70
2022-08-02T21:34:01.069Z,7.40
2022-08-02T21:36:32.684Z,8.10
2022-08-02T21:39:05.089Z,8.10
2022-08-02T21:41:39.406Z,7.90
2022-08-02T21:44:15.786Z,8.40
2022-08-02T21:46:46.024Z,7.90
2022-08-02T21:49:16.334Z,7.50
2022-08-02T21:51:49.316Z,7.80
2022-08-02T21:54:21.206Z,7.90
2022-08-02T21:56:52.258Z,8.30
2022-08-02T21:59:25.664Z,8.20
2022-08-02T22:01:56.879Z,6.90
2022-08-02T22:04:26.591Z,7.60
2022-08-02T22:06:55.497Z,7.70
2022-08-02T22:12:17.682Z,7.60
2022-08-02T22:14:53.798Z,7.70
2022-08-02T22:17:52.037Z,7.90
2022-08-02T22:20:15.448Z,7.60
2022-08-02T22:22:44.313Z,7.90
2022-08-02T22:25:26.967Z,8.50
2022-08-02T22:28:35.256Z,8.70
2022-08-02T22:30:52.554Z,8.00
2022-08-02T22:33:42.127Z,9.00
2022-08-02T22:36:30.122Z,8.10
2022-08-02T22:38:59.318Z,8.30
2022-08-02T22:42:01.682Z,7.90
2022-08-02T22:44:18.724Z,8.80
2022-08-02T22:46:47.260Z,8.40
2022-08-02T22:49:37.625Z,8.60
2022-08-02T22:52:07.895Z,8.20
2022-08-02T22:54:36.611Z,8.40
2022-08-02T22:57:06.379Z,8.10
2022-08-02T22:58:53.554Z,7.80
2022-08-02T22:59:00.753Z,12.40
2022-08-02T22:59:06.870Z,6.70
2022-08-02T22:59:39.319Z,8.20
2022-08-02T23:02:09.258Z,8.20
2022-08-02T23:04:37.719Z,8.70
2022-08-02T23:07:05.961Z,9.20
2022-08-02T23:09:34.502Z,8.50
2022-08-02T23:12:02.845Z,8.20
2022-08-02T23:14:31.058Z,8.60
2022-08-02T23:17:17.557Z,9.40
2022-08-02T23:19:51.483Z,9.20
2022-08-02T23:22:20.714Z,8.80
2022-08-02T23:24:49.609Z,8.50
2022-08-02T23:27:18.468Z,8.80
2022-08-02T23:29:47.586Z,9.40
2022-08-02T23:32:16.487Z,9.70
2022-08-02T23:34:45.207Z,10.00
2022-08-02T23:37:13.819Z,11.30
2022-08-02T23:39:42.067Z,11.60
2022-08-02T23:42:10.266Z,11.50
2022-08-02T23:44:38.591Z,11.70
2022-08-02T23:47:07.104Z,9.50
2022-08-02T23:49:35.586Z,9.10
2022-08-02T23:52:04.828Z,8.90
2022-08-02T23:54:33.033Z,10.00
2022-08-02T23:57:01.191Z,9.70
2022-08-02T23:59:50.741Z,9.80
